Time;durP1;ratioP1;P1;durP2;ratioP2;P2;SDS_P1;SDS_P2;PMS_P1;PMS_P2;Temp;Humidity;BMP_temperature;BMP_pressure;BME280_temperature;BME280_humidity;BME280_pressure;Samples;Min_cycle;Max_cycle;Signal;HPM_P1;HPM_P2
2022/06/19 00:00:34;;;;;;;2.00;0.57;;;15.00;99.90;;;;;;5077838;28;20116;-73
2022/06/19 00:03:03;;;;;;;1.73;0.60;;;15.20;99.90;;;;;;5078142;28;20599;-74
2022/06/19 00:05:29;;;;;;;10.85;1.20;;;14.80;99.90;;;;;;5077631;28;20432;-73
2022/06/19 00:07:55;;;;;;;5.80;1.00;;;14.90;99.90;;;;;;5077633;28;20136;-73
2022/06/19 00:10:21;;;;;;;2.20;0.50;;;14.70;99.90;;;;;;5077875;28;20039;-73
2022/06/19 00:12:47;;;;;;;3.80;0.80;;;14.60;99.90;;;;;;5077902;28;20046;-73
2022/06/19 00:15:13;;;;;;;1.90;0.60;;;14.70;99.90;;;;;;5077398;28;20199;-73
2022/06/19 00:17:39;;;;;;;2.58;1.08;;;14.60;99.90;;;;;;5061109;28;20093;-73
2022/06/19 00:20:06;;;;;;;2.47;0.57;;;14.60;99.90;;;;;;5076885;28;20396;-73
2022/06/19 00:22:31;;;;;;;2.03;0.70;;;14.50;99.90;;;;;;5077367;28;20380;-73
2022/06/19 00:24:58;;;;;;;7.43;0.75;;;14.60;99.90;;;;;;5060851;28;20043;-73
2022/06/19 00:27:25;;;;;;;3.10;0.90;;;14.90;99.90;;;;;;5060634;28;20040;-73
2022/06/19 00:29:51;;;;;;;1.23;0.35;;;14.70;99.90;;;;;;5060535;28;20040;-72
2022/06/19 00:32:18;;;;;;;5.60;0.70;;;14.40;99.90;;;;;;5095387;28;20048;-73
2022/06/19 00:34:44;;;;;;;0.30;0.30;;;14.50;99.90;;;;;;5077144;28;20044;-73
2022/06/19 00:37:10;;;;;;;0.80;0.57;;;14.70;99.90;;;;;;5077154;28;20445;-73
2022/06/19 00:39:39;;;;;;;1.08;0.40;;;14.50;99.90;;;;;;5060433;28;20377;-73
2022/06/19 00:42:10;;;;;;;5.97;0.77;;;14.30;99.90;;;;;;5076938;28;20399;-73
2022/06/19 00:44:36;;;;;;;1.38;0.68;;;14.50;99.90;;;;;;5076925;28;20149;-73
2022/06/19 00:47:22;;;;;;;2.95;0.20;;;14.40;99.90;;;;;;5060054;28;20503;-73
2022/06/19 00:49:54;;;;;;;2.90;0.70;;;14.50;99.90;;;;;;5060158;28;20047;-73
2022/06/19 00:52:26;;;;;;;2.55;0.45;;;14.40;99.90;;;;;;5076668;28;20101;-73
2022/06/19 00:55:07;;;;;;;2.47;0.60;;;14.30;99.90;;;;;;5076653;28;20048;-73
2022/06/19 00:57:37;;;;;;;1.95;0.40;;;14.30;99.90;;;;;;5076749;28;20485;-73
2022/06/19 01:00:10;;;;;;;7.35;1.13;;;14.30;99.90;;;;;;5076706;28;20036;-72
2022/06/19 01:02:41;;;;;;;2.45;0.60;;;14.30;99.90;;;;;;5076462;28;20046;-72
2022/06/19 01:05:11;;;;;;;1.55;0.47;;;14.40;99.90;;;;;;5076549;28;20407;-73
2022/06/19 01:07:38;;;;;;;4.25;0.60;;;14.40;99.90;;;;;;5076575;28;20474;-73
2022/06/19 01:10:04;;;;;;;1.92;0.90;;;14.30;99.90;;;;;;5076547;28;20040;-73
2022/06/19 01:12:31;;;;;;;1.23;0.45;;;14.30;99.90;;;;;;5076354;28;20455;-73
2022/06/19 01:15:03;;;;;;;4.05;0.50;;;14.40;99.90;;;;;;5076280;28;20044;-73
2022/06/19 01:17:31;;;;;;;2.72;0.57;;;14.40;99.90;;;;;;5076518;28;20104;-73
2022/06/19 01:19:57;;;;;;;2.58;0.50;;;14.70;99.90;;;;;;5076157;28;20131;-73
2022/06/19 01:22:49;;;;;;;1.50;0.63;;;14.40;99.90;;;;;;5059504;28;20128;-73
2022/06/19 01:25:20;;;;;;;2.67;0.60;;;14.40;99.90;;;;;;5076118;28;20053;-73
2022/06/19 01:30:35;;;;;;;1.60;0.50;;;14.50;99.90;;;;;;5075495;28;20549;-73
2022/06/19 01:33:03;;;;;;;1.35;0.75;;;14.70;99.90;;;;;;5075852;28;20043;-73
2022/06/19 01:35:33;;;;;;;1.85;0.60;;;14.50;99.90;;;;;;5075966;28;20051;-73
2022/06/19 01:38:03;;;;;;;0.85;0.32;;;14.40;99.90;;;;;;5075867;28;20044;-72
2022/06/19 01:40:33;;;;;;;2.67;0.85;;;14.50;99.90;;;;;;5076182;28;20518;-73
2022/06/19 01:42:59;;;;;;;1.97;0.43;;;14.40;99.90;;;;;;5075741;28;20078;-73
2022/06/19 01:45:25;;;;;;;6.88;0.47;;;14.40;99.90;;;;;;5076025;28;20637;-73
2022/06/19 01:47:51;;;;;;;2.50;0.60;;;14.40;99.90;;;;;;5059185;28;20042;-73
2022/06/19 01:50:25;;;;;;;0.57;0.47;;;14.50;99.90;;;;;;5075938;28;20051;-73
2022/06/19 01:52:59;;;;;;;5.47;0.77;;;14.40;99.90;;;;;;5075729;28;20446;-73
2022/06/19 01:55:28;;;;;;;4.90;0.63;;;14.50;99.90;;;;;;5075497;28;20466;-73
2022/06/19 01:57:57;;;;;;;2.30;0.55;;;14.50;99.90;;;;;;5059741;28;20514;-73
2022/06/19 02:00:27;;;;;;;2.58;1.25;;;14.50;99.90;;;;;;5075568;28;20039;-73
2022/06/19 02:03:19;;;;;;;1.02;0.47;;;14.50;99.90;;;;;;5075770;28;20534;-72
2022/06/19 02:05:45;;;;;;;1.98;0.70;;;14.40;99.90;;;;;;5075463;28;20051;-72
2022/06/19 02:08:13;;;;;;;3.42;0.85;;;14.40;99.90;;;;;;5075378;28;20043;-73
2022/06/19 02:10:41;;;;;;;4.63;0.47;;;14.40;99.90;;;;;;5075693;28;20044;-73
2022/06/19 02:13:09;;;;;;;1.17;0.43;;;14.70;99.90;;;;;;5058641;28;20047;-72
2022/06/19 02:15:36;;;;;;;3.55;0.57;;;14.40;99.90;;;;;;5075586;28;20047;-73
2022/06/19 02:18:05;;;;;;;0.52;0.32;;;14.40;99.90;;;;;;5059082;28;20436;-73
2022/06/19 02:20:31;;;;;;;1.55;0.70;;;14.40;99.90;;;;;;5058883;28;20054;-73
2022/06/19 02:22:57;;;;;;;1.25;0.70;;;14.40;99.90;;;;;;5058467;28;20036;-72
2022/06/19 02:25:23;;;;;;;2.55;0.40;;;14.40;99.90;;;;;;5075301;28;20048;-73
2022/06/19 02:27:49;;;;;;;4.50;0.52;;;14.40;99.90;;;;;;5075210;28;20043;-73
2022/06/19 02:30:15;;;;;;;3.10;0.50;;;14.40;99.90;;;;;;5058518;28;20403;-72
2022/06/19 02:32:50;;;;;;;1.38;0.40;;;14.50;99.90;;;;;;5058467;28;20039;-74
2022/06/19 02:35:22;;;;;;;5.63;0.70;;;14.50;99.90;;;;;;5075120;28;20434;-73
2022/06/19 02:37:54;;;;;;;2.50;0.68;;;14.40;99.90;;;;;;5074956;28;20097;-72
2022/06/19 02:40:41;;;;;;;4.00;0.60;;;14.50;99.90;;;;;;5075011;28;20123;-73
2022/06/19 02:43:14;;;;;;;6.43;0.73;;;14.40;99.90;;;;;;5074990;28;20036;-72
2022/06/19 02:45:41;;;;;;;0.80;0.57;;;14.50;99.90;;;;;;5058126;28;20134;-73
2022/06/19 02:48:16;;;;;;;2.95;0.73;;;14.40;99.90;;;;;;5058372;28;20070;-73
2022/06/19 02:50:42;;;;;;;2.10;0.57;;;14.50;99.90;;;;;;5074655;28;20097;-73
2022/06/19 02:53:07;;;;;;;1.48;0.57;;;14.50;99.90;;;;;;5074884;28;20044;-73
2022/06/19 02:55:33;;;;;;;1.52;0.68;;;14.50;99.90;;;;;;5058117;28;20052;-72
2022/06/19 02:57:59;;;;;;;1.88;0.47;;;14.50;99.90;;;;;;5041554;28;20058;-73
2022/06/19 03:00:27;;;;;;;2.50;0.75;;;14.50;99.90;;;;;;5074791;28;20102;-73
2022/06/19 03:03:27;;;;;;;1.85;0.68;;;14.50;99.90;;;;;;5074712;28;20039;-73
2022/06/19 03:05:53;;;;;;;0.98;0.50;;;14.50;99.90;;;;;;5069206;28;20075;-73
2022/06/19 03:08:19;;;;;;;4.68;0.82;;;14.60;99.90;;;;;;5058200;28;20044;-73
2022/06/19 03:10:45;;;;;;;7.10;0.70;;;14.60;99.90;;;;;;5074921;28;20522;-73
2022/06/19 03:13:10;;;;;;;3.70;0.73;;;14.60;99.90;;;;;;5058239;28;20048;-73
2022/06/19 03:15:36;;;;;;;2.47;0.70;;;14.70;99.90;;;;;;5041309;28;20085;-72
2022/06/19 03:18:03;;;;;;;0.77;0.70;;;14.60;99.90;;;;;;5074618;28;20094;-72
2022/06/19 03:20:28;;;;;;;4.20;0.82;;;14.50;99.90;;;;;;5058023;28;20072;-72
2022/06/19 03:22:54;;;;;;;3.40;0.88;;;14.50;99.90;;;;;;5074770;28;20395;-73
2022/06/19 03:25:21;;;;;;;3.72;0.60;;;14.50;99.90;;;;;;5074751;28;20085;-73
2022/06/19 03:27:48;;;;;;;3.60;0.47;;;14.50;99.90;;;;;;5074491;28;20478;-72
2022/06/19 03:30:16;;;;;;;2.95;0.73;;;14.50;99.90;;;;;;5041630;28;20135;-73
2022/06/19 03:32:41;;;;;;;1.95;1.13;;;14.40;99.90;;;;;;5074513;28;20039;-72
2022/06/19 03:35:08;;;;;;;8.15;0.90;;;14.30;99.90;;;;;;5041176;28;20412;-73
2022/06/19 03:37:34;;;;;;;1.23;0.63;;;14.30;99.90;;;;;;5074232;28;20048;-73
2022/06/19 03:40:00;;;;;;;3.00;0.80;;;14.30;99.90;;;;;;5074376;28;20071;-73
2022/06/19 03:42:25;;;;;;;2.97;1.00;;;14.20;99.90;;;;;;5057635;28;20137;-73
2022/06/19 03:44:51;;;;;;;6.60;1.33;;;14.20;99.90;;;;;;5057712;28;20464;-73
2022/06/19 03:47:24;;;;;;;2.75;0.70;;;14.10;99.90;;;;;;5057680;28;20036;-73
2022/06/19 03:49:50;;;;;;;2.75;0.50;;;14.20;99.90;;;;;;5074261;28;20056;-72
2022/06/19 03:52:16;;;;;;;4.50;1.02;;;14.20;99.90;;;;;;5074142;28;20048;-73
2022/06/19 03:54:42;;;;;;;4.25;0.55;;;14.20;99.90;;;;;;5075593;28;20036;-73
2022/06/19 03:57:11;;;;;;;8.23;1.17;;;14.20;99.90;;;;;;5061288;28;20039;-72
2022/06/19 03:59:36;;;;;;;3.83;0.65;;;14.20;99.90;;;;;;5061261;28;20044;-72
2022/06/19 04:02:03;;;;;;;4.93;0.90;;;14.20;99.90;;;;;;5078185;28;20124;-73
2022/06/19 04:04:29;;;;;;;4.07;0.90;;;14.20;99.90;;;;;;5077661;28;20402;-72
2022/06/19 04:06:55;;;;;;;2.00;0.57;;;14.30;99.90;;;;;;5077613;28;20428;-72
2022/06/19 04:09:21;;;;;;;3.60;0.45;;;14.10;99.90;;;;;;5077664;28;20097;-73
2022/06/19 04:11:47;;;;;;;2.95;0.50;;;14.10;99.90;;;;;;5077622;28;20408;-73
2022/06/19 04:14:13;;;;;;;1.45;0.40;;;14.00;99.90;;;;;;5060838;28;20457;-73
2022/06/19 04:16:39;;;;;;;0.98;0.50;;;14.00;99.90;;;;;;5061085;28;20082;-73
2022/06/19 04:19:06;;;;;;;5.00;0.60;;;14.00;99.90;;;;;;5044485;28;20040;-74
2022/06/19 04:21:35;;;;;;;1.60;0.80;;;14.00;99.90;;;;;;5077385;28;20071;-73
2022/06/19 04:24:04;;;;;;;2.67;0.70;;;13.90;99.90;;;;;;5060978;28;20076;-73
2022/06/19 04:26:34;;;;;;;5.07;1.05;;;13.90;99.90;;;;;;5061177;28;20480;-73
2022/06/19 04:29:00;;;;;;;3.55;0.80;;;13.80;99.90;;;;;;5077388;28;20040;-73
2022/06/19 04:31:26;;;;;;;3.33;0.57;;;13.80;99.90;;;;;;5077368;28;20151;-73
2022/06/19 04:33:52;;;;;;;2.78;0.57;;;13.80;99.90;;;;;;5077264;28;20508;-72
2022/06/19 04:36:21;;;;;;;2.58;0.47;;;13.70;99.90;;;;;;5077128;28;20074;-73
2022/06/19 04:38:49;;;;;;;1.00;0.40;;;13.70;99.90;;;;;;5077485;28;20035;-73
2022/06/19 04:41:20;;;;;;;4.70;0.50;;;13.70;99.90;;;;;;5060757;28;20043;-73
2022/06/19 04:43:47;;;;;;;1.65;0.40;;;13.60;99.90;;;;;;5077034;28;20040;-73
2022/06/19 04:46:12;;;;;;;1.10;0.50;;;13.50;99.90;;;;;;5077036;28;20040;-72
2022/06/19 04:48:38;;;;;;;1.13;0.38;;;14.40;99.90;;;;;;5076878;28;20403;-73
2022/06/19 04:51:05;;;;;;;0.60;0.35;;;13.60;99.90;;;;;;5076885;28;20408;-73
2022/06/19 04:53:32;;;;;;;2.63;0.50;;;14.20;99.90;;;;;;5077020;28;20101;-73
2022/06/19 04:55:59;;;;;;;0.47;0.30;;;13.60;99.90;;;;;;5060161;28;20036;-73
2022/06/19 04:58:25;;;;;;;0.60;0.40;;;13.70;99.90;;;;;;5060640;28;20037;-73
2022/06/19 05:00:52;;;;;;;2.53;0.50;;;13.80;99.90;;;;;;5060197;28;20032;-73
2022/06/19 05:03:21;;;;;;;0.25;0.20;;;13.90;99.90;;;;;;5060221;28;20071;-73
2022/06/19 05:05:47;;;;;;;0.10;0.10;;;14.10;99.90;;;;;;5060167;28;20488;-73
2022/06/19 05:08:13;;;;;;;0.82;0.45;;;14.10;99.90;;;;;;5076848;28;20487;-73
2022/06/19 05:10:41;;;;;;;1.92;0.60;;;14.10;99.90;;;;;;5076692;28;20036;-73
2022/06/19 05:13:15;;;;;;;1.15;0.45;;;14.20;99.90;;;;;;5076508;28;20051;-73
2022/06/19 05:15:41;;;;;;;5.00;0.43;;;14.20;99.90;;;;;;5076527;28;20431;-72
2022/06/19 05:18:07;;;;;;;3.08;0.55;;;14.20;99.90;;;;;;5059852;28;20041;-73
2022/06/19 05:20:32;;;;;;;2.22;0.70;;;14.20;99.90;;;;;;5076713;28;20047;-73
2022/06/19 05:22:58;;;;;;;4.75;0.77;;;14.20;99.90;;;;;;5076399;28;20119;-73
2022/06/19 05:25:24;;;;;;;1.48;0.77;;;14.20;99.90;;;;;;5076571;28;20040;-73
2022/06/19 05:27:50;;;;;;;3.95;0.55;;;14.30;99.90;;;;;;5043517;28;20036;-73
2022/06/19 05:30:16;;;;;;;1.65;0.60;;;14.20;99.90;;;;;;5076311;28;20484;-72
2022/06/19 05:32:41;;;;;;;5.60;0.55;;;14.20;99.90;;;;;;5076120;28;20043;-73
2022/06/19 05:35:08;;;;;;;1.42;0.63;;;14.20;99.90;;;;;;5075976;28;20131;-73
2022/06/19 05:37:33;;;;;;;4.22;0.70;;;14.20;99.90;;;;;;5076141;28;20388;-73
2022/06/19 05:39:59;;;;;;;1.38;0.45;;;14.30;99.90;;;;;;5059596;28;20044;-73
2022/06/19 05:42:26;;;;;;;1.55;0.60;;;14.30;99.90;;;;;;5076029;28;20124;-74
2022/06/19 05:44:52;;;;;;;1.42;0.57;;;14.20;99.90;;;;;;5076236;28;20069;-73
2022/06/19 05:47:18;;;;;;;1.85;0.60;;;14.20;99.90;;;;;;5094198;28;20039;-73
2022/06/19 05:49:43;;;;;;;1.20;0.52;;;14.20;99.90;;;;;;5042664;28;20085;-73
2022/06/19 05:52:22;;;;;;;1.58;0.68;;;14.10;99.90;;;;;;5059010;28;20458;-72
2022/06/19 05:54:48;;;;;;;2.35;0.28;;;14.00;99.90;;;;;;5075761;28;20082;-74
2022/06/19 05:57:14;;;;;;;2.78;0.50;;;14.00;99.90;;;;;;5076261;28;20040;-73
2022/06/19 05:59:40;;;;;;;1.63;0.50;;;14.00;99.90;;;;;;5076103;28;20078;-73
2022/06/19 06:02:06;;;;;;;5.00;0.60;;;14.00;99.90;;;;;;5075705;28;20043;-74
2022/06/19 06:04:32;;;;;;;1.73;0.60;;;14.00;99.90;;;;;;5075633;28;20411;-73
2022/06/19 06:06:58;;;;;;;0.50;0.40;;;14.00;99.90;;;;;;5075522;28;20043;-73
2022/06/19 06:09:24;;;;;;;1.65;0.65;;;14.10;99.90;;;;;;5059041;28;20150;-73
2022/06/19 06:11:50;;;;;;;1.20;0.40;;;14.10;99.90;;;;;;5058835;28;20040;-72
2022/06/19 06:14:15;;;;;;;2.28;0.45;;;14.10;99.90;;;;;;5075313;28;20046;-73
2022/06/19 06:16:41;;;;;;;0.75;0.57;;;14.10;99.90;;;;;;5074956;28;20105;-73
2022/06/19 06:19:06;;;;;;;4.88;0.77;;;14.20;99.90;;;;;;5058975;28;20453;-72
2022/06/19 06:21:32;;;;;;;0.77;0.50;;;14.20;99.90;;;;;;5058827;28;20407;-73
2022/06/19 06:23:58;;;;;;;0.85;0.47;;;14.20;99.90;;;;;;5075409;28;20040;-73
2022/06/19 06:26:27;;;;;;;5.13;0.80;;;14.20;99.90;;;;;;5075429;28;20419;-72
2022/06/19 06:28:55;;;;;;;2.20;0.47;;;14.20;99.90;;;;;;5075291;28;20089;-73
2022/06/19 06:31:21;;;;;;;2.28;0.65;;;14.20;99.90;;;;;;5075159;28;20040;-73
2022/06/19 06:33:47;;;;;;;0.30;0.30;;;14.10;99.90;;;;;;5058755;28;20047;-73
2022/06/19 06:36:14;;;;;;;3.15;0.50;;;14.40;99.90;;;;;;5058368;28;20044;-72
2022/06/19 06:38:40;;;;;;;7.75;0.60;;;14.20;99.90;;;;;;5058295;28;20029;-73
2022/06/19 06:41:08;;;;;;;1.45;0.80;;;14.20;99.90;;;;;;5075255;28;20476;-72
2022/06/19 06:43:39;;;;;;;2.65;0.40;;;14.30;99.90;;;;;;5074983;28;20044;-72
2022/06/19 06:46:07;;;;;;;2.63;0.55;;;14.40;99.90;;;;;;5075315;28;20036;-73
2022/06/19 06:48:33;;;;;;;3.80;0.60;;;14.40;99.90;;;;;;5074929;28;20051;-74
2022/06/19 06:50:59;;;;;;;4.70;0.93;;;14.40;99.90;;;;;;5074708;28;20052;-73
2022/06/19 06:53:24;;;;;;;3.38;0.73;;;14.40;99.90;;;;;;5074806;28;20472;-72
2022/06/19 06:55:55;;;;;;;3.55;0.70;;;14.30;99.90;;;;;;5074921;28;20122;-73
2022/06/19 06:58:20;;;;;;;3.67;0.75;;;14.30;99.90;;;;;;5058180;28;20040;-72
2022/06/19 07:00:46;;;;;;;2.42;0.73;;;14.30;99.90;;;;;;5074762;28;20127;-73
2022/06/19 07:03:12;;;;;;;1.58;0.60;;;14.40;99.90;;;;;;5058363;28;20036;-73
2022/06/19 07:05:37;;;;;;;3.40;0.60;;;14.40;99.90;;;;;;5074607;28;20123;-73
2022/06/19 07:08:05;;;;;;;1.35;0.52;;;14.70;99.90;;;;;;5057898;28;20078;-74
2022/06/19 07:10:31;;;;;;;3.28;0.52;;;14.50;99.90;;;;;;5058114;28;20046;-72
2022/06/19 07:12:57;;;;;;;4.68;0.57;;;14.50;99.90;;;;;;5074722;28;20040;-74
2022/06/19 07:15:23;;;;;;;2.10;0.65;;;14.40;99.90;;;;;;5074546;28;20044;-73
2022/06/19 07:17:49;;;;;;;2.10;0.65;;;14.60;99.90;;;;;;5074491;28;20036;-73
2022/06/19 07:20:14;;;;;;;2.90;0.90;;;14.60;99.90;;;;;;5057667;28;20160;-73
2022/06/19 07:22:40;;;;;;;6.57;0.77;;;14.60;99.90;;;;;;5074584;28;20047;-75
2022/06/19 07:25:06;;;;;;;1.13;0.50;;;14.60;99.90;;;;;;5057710;28;20044;-71
2022/06/19 07:27:32;;;;;;;1.38;0.50;;;14.70;99.90;;;;;;5057677;28;20123;-73
2022/06/19 07:29:58;;;;;;;0.63;0.30;;;14.70;99.90;;;;;;5076437;28;20071;-73
2022/06/19 07:32:23;;;;;;;1.73;0.73;;;14.70;99.90;;;;;;5061549;28;20052;-72
2022/06/19 07:34:49;;;;;;;1.65;0.60;;;14.60;99.90;;;;;;5078019;28;20119;-72
2022/06/19 07:37:15;;;;;;;2.38;0.60;;;14.70;99.90;;;;;;5061313;28;20040;-73
2022/06/19 07:39:42;;;;;;;4.90;0.85;;;14.70;99.90;;;;;;5078350;28;20036;-74
2022/06/19 07:42:10;;;;;;;1.83;0.63;;;14.70;99.90;;;;;;5078056;28;20045;-74
2022/06/19 07:44:38;;;;;;;2.63;0.40;;;14.70;99.90;;;;;;5078213;28;20047;-74
2022/06/19 07:50:10;;;;;;;1.95;0.73;;;14.70;99.90;;;;;;5077941;28;20069;-73
2022/06/19 07:52:41;;;;;;;2.53;0.63;;;14.70;99.90;;;;;;5077614;28;20056;-73
2022/06/19 07:55:09;;;;;;;3.70;0.68;;;14.70;99.90;;;;;;5077820;28;20098;-73
2022/06/19 07:57:35;;;;;;;8.13;0.98;;;14.70;99.90;;;;;;5077678;28;20032;-74
2022/06/19 08:00:02;;;;;;;1.05;0.40;;;14.60;99.90;;;;;;5077987;28;20538;-75
2022/06/19 08:02:28;;;;;;;4.68;0.70;;;14.60;99.90;;;;;;5061177;28;20032;-73
2022/06/19 08:04:53;;;;;;;1.58;0.60;;;14.60;99.90;;;;;;5077724;28;20517;-73
2022/06/19 08:07:19;;;;;;;1.33;0.50;;;14.60;99.90;;;;;;5077171;28;20087;-75
2022/06/19 08:09:46;;;;;;;3.70;0.80;;;14.60;99.90;;;;;;5061125;28;20479;-77
2022/06/19 08:12:12;;;;;;;3.33;0.65;;;14.60;99.90;;;;;;5077502;28;20075;-74
2022/06/19 08:14:38;;;;;;;3.85;0.73;;;14.60;99.90;;;;;;5077272;28;20043;-74
2022/06/19 08:17:05;;;;;;;7.55;0.95;;;14.60;99.90;;;;;;5077361;28;20047;-74
2022/06/19 08:19:31;;;;;;;0.70;0.50;;;14.60;99.90;;;;;;5077274;28;20122;-74
2022/06/19 08:21:57;;;;;;;7.65;0.88;;;14.60;99.90;;;;;;5077586;28;20075;-74
2022/06/19 08:24:22;;;;;;;6.32;0.55;;;14.60;99.90;;;;;;5077283;28;20047;-74
2022/06/19 08:26:58;;;;;;;1.75;0.73;;;14.60;99.90;;;;;;5060387;28;20092;-74
2022/06/19 08:29:23;;;;;;;1.65;0.70;;;14.70;99.90;;;;;;5077157;28;20090;-74
2022/06/19 08:31:49;;;;;;;2.47;0.60;;;14.70;99.90;;;;;;5043800;28;20072;-74
2022/06/19 08:34:14;;;;;;;1.38;0.52;;;14.70;99.90;;;;;;5060297;28;20403;-74
2022/06/19 08:36:40;;;;;;;1.10;0.77;;;14.70;99.90;;;;;;5060611;28;20044;-74
2022/06/19 08:39:11;;;;;;;3.88;0.70;;;14.70;99.90;;;;;;5060647;28;20476;-74
2022/06/19 08:42:14;;;;;;;5.43;0.77;;;14.70;99.90;;;;;;5076786;28;20039;-74
2022/06/19 08:45:07;;;;;;;4.25;0.80;;;14.80;99.90;;;;;;5076914;28;20066;-74
2022/06/19 08:47:51;;;;;;;6.45;1.10;;;14.80;99.90;;;;;;5076796;28;20097;-73
2022/06/19 08:50:37;;;;;;;3.72;0.60;;;14.80;99.90;;;;;;5076714;28;20051;-73
2022/06/19 08:53:22;;;;;;;2.70;0.82;;;14.90;99.90;;;;;;5076726;28;20056;-74
2022/06/19 08:55:57;;;;;;;1.88;0.68;;;15.00;99.90;;;;;;5076633;28;20097;-74
2022/06/19 08:58:45;;;;;;;1.75;0.73;;;15.00;99.90;;;;;;5060155;28;20044;-74
2022/06/19 09:01:23;;;;;;;2.97;0.80;;;15.00;99.90;;;;;;5076908;28;20094;-74
2022/06/19 09:07:05;;;;;;;4.90;0.75;;;15.00;99.90;;;;;;5076722;28;20437;-75
2022/06/19 09:10:03;;;;;;;2.90;1.30;;;15.10;99.90;;;;;;5059781;28;20040;-74
2022/06/19 09:12:56;;;;;;;5.63;0.70;;;15.10;99.90;;;;;;5059526;28;20040;-73
2022/06/19 09:15:39;;;;;;;4.82;0.60;;;15.20;99.90;;;;;;5076324;28;20040;-74
2022/06/19 09:18:10;;;;;;;5.28;0.70;;;15.20;99.90;;;;;;5059589;28;20408;-73
2022/06/19 09:20:48;;;;;;;1.70;0.60;;;15.20;99.90;;;;;;5076421;28;20173;-73
2022/06/19 09:23:53;;;;;;;2.97;0.50;;;15.30;99.90;;;;;;5059884;28;20036;-74
2022/06/19 09:26:31;;;;;;;2.67;0.60;;;15.30;99.90;;;;;;5058631;28;20052;-73
2022/06/19 09:29:11;;;;;;;4.00;0.70;;;15.40;99.90;;;;;;5059559;28;20082;-73
2022/06/19 09:31:54;;;;;;;1.43;0.63;;;15.40;99.90;;;;;;5076435;28;20044;-74
2022/06/19 09:34:39;;;;;;;8.30;1.10;;;15.50;99.90;;;;;;5059284;28;20306;-73
2022/06/19 09:37:26;;;;;;;4.43;0.60;;;15.60;99.90;;;;;;5059549;28;20484;-74
2022/06/19 09:40:04;;;;;;;2.20;0.75;;;15.50;99.90;;;;;;5075958;28;20039;-73
2022/06/19 09:42:46;;;;;;;1.08;0.65;;;15.50;99.90;;;;;;5076148;28;20062;-73
2022/06/19 09:45:11;;;;;;;2.33;0.60;;;15.40;99.90;;;;;;5075970;28;20040;-73
2022/06/19 09:47:49;;;;;;;4.50;0.82;;;15.20;99.90;;;;;;5075957;28;20050;-73
2022/06/19 09:50:25;;;;;;;1.23;0.90;;;15.30;99.90;;;;;;5075551;28;20071;-73
2022/06/19 09:53:02;;;;;;;6.80;1.02;;;15.30;99.90;;;;;;5075098;28;20044;-73
2022/06/19 09:55:50;;;;;;;1.33;0.93;;;15.50;99.90;;;;;;5075433;28;20123;-73
2022/06/19 09:58:27;;;;;;;1.52;1.20;;;15.60;99.90;;;;;;5058855;28;20036;-73
2022/06/19 10:00:56;;;;;;;1.92;0.80;;;15.70;99.90;;;;;;5075775;28;20042;-73
2022/06/19 10:03:41;;;;;;;2.97;0.82;;;16.00;99.90;;;;;;5075579;28;20036;-73
2022/06/19 10:06:12;;;;;;;1.63;0.60;;;16.10;99.90;;;;;;5075621;28;20079;-73
2022/06/19 10:08:44;;;;;;;4.57;0.60;;;16.20;99.90;;;;;;5075365;28;20048;-74
2022/06/19 10:11:22;;;;;;;0.85;0.45;;;16.40;99.90;;;;;;5075429;28;20466;-73
2022/06/19 10:14:04;;;;;;;1.35;0.68;;;16.50;99.90;;;;;;5075542;28;20122;-73
2022/06/19 10:16:44;;;;;;;0.40;0.40;;;16.60;99.90;;;;;;5075527;28;20093;-73
2022/06/19 10:19:43;;;;;;;1.10;0.70;;;16.60;99.90;;;;;;5075655;28;20059;-73
2022/06/19 10:22:35;;;;;;;1.48;0.50;;;16.50;99.90;;;;;;5075545;28;20487;-73
2022/06/19 10:25:25;;;;;;;2.15;0.63;;;16.40;99.90;;;;;;5075543;28;20044;-73
2022/06/19 10:28:25;;;;;;;1.10;0.50;;;16.50;99.90;;;;;;5058914;28;20096;-72
2022/06/19 10:30:59;;;;;;;4.68;0.73;;;16.40;99.90;;;;;;5075666;28;20127;-73
2022/06/19 10:33:47;;;;;;;0.93;0.40;;;16.40;99.90;;;;;;5075891;28;20036;-73
2022/06/19 10:36:18;;;;;;;0.77;0.40;;;16.60;99.90;;;;;;5075150;28;20066;-74
2022/06/19 10:39:12;;;;;;;3.05;0.50;;;16.60;99.90;;;;;;5075492;28;20042;-73
2022/06/19 10:42:05;;;;;;;0.55;0.40;;;16.90;99.90;;;;;;5075295;28;20079;-73
2022/06/19 10:44:52;;;;;;;0.45;0.45;;;17.00;99.90;;;;;;5074978;28;20039;-72
2022/06/19 10:47:38;;;;;;;2.80;0.50;;;16.90;99.90;;;;;;5058781;28;20536;-73
2022/06/19 10:50:37;;;;;;;0.82;0.77;;;17.00;99.90;;;;;;5075196;28;20078;-74
2022/06/19 10:53:33;;;;;;;2.17;0.60;;;17.20;99.90;;;;;;5058280;28;20105;-73
2022/06/19 10:56:35;;;;;;;1.20;0.65;;;17.30;99.90;;;;;;5074936;28;20045;-74
2022/06/19 10:59:01;;;;;;;3.63;0.75;;;17.10;99.90;;;;;;5075425;28;20116;-73
2022/06/19 11:04:24;;;;;;;2.67;0.38;;;17.10;99.90;;;;;;5077815;28;20050;-73
2022/06/19 11:07:05;;;;;;;1.15;0.50;;;17.00;99.90;;;;;;5078947;28;20407;-73
2022/06/19 11:09:36;;;;;;;3.97;0.70;;;16.80;99.90;;;;;;5079105;28;20505;-73
2022/06/19 11:12:10;;;;;;;0.57;0.55;;;16.70;99.90;;;;;;5062178;28;20093;-74
2022/06/19 11:14:46;;;;;;;2.45;0.50;;;16.70;99.90;;;;;;5097056;28;20051;-73
2022/06/19 11:17:36;;;;;;;2.75;0.30;;;16.70;99.90;;;;;;5078789;28;20407;-73
2022/06/19 11:20:31;;;;;;;2.38;0.88;;;16.50;99.90;;;;;;5062488;28;20043;-74
2022/06/19 11:23:23;;;;;;;1.65;0.50;;;16.40;99.90;;;;;;5058218;28;20044;-73
2022/06/19 11:25:57;;;;;;;1.83;0.43;;;16.30;99.90;;;;;;5079124;28;20040;-74
2022/06/19 11:28:40;;;;;;;2.20;0.60;;;16.30;99.90;;;;;;5078501;28;20047;-73
2022/06/19 11:31:17;;;;;;;1.50;0.50;;;16.30;99.90;;;;;;5078551;28;20461;-73
2022/06/19 11:33:43;;;;;;;0.63;0.60;;;16.10;99.90;;;;;;5061717;28;20086;-73
2022/06/19 11:36:25;;;;;;;2.17;0.40;;;16.00;99.90;;;;;;5078268;28;20122;-73
2022/06/19 11:38:54;;;;;;;0.20;0.20;;;16.10;99.90;;;;;;5078382;28;20109;-73
2022/06/19 11:41:35;;;;;;;0.22;0.22;;;16.10;99.90;;;;;;5078368;28;20040;-73
2022/06/19 11:44:18;;;;;;;1.00;0.40;;;16.10;99.90;;;;;;5045045;28;20044;-73
2022/06/19 11:46:53;;;;;;;1.45;0.40;;;16.00;99.90;;;;;;5078090;28;20042;-73
2022/06/19 11:49:39;;;;;;;0.43;0.40;;;16.00;99.90;;;;;;5078109;28;20072;-73
2022/06/19 11:52:16;;;;;;;1.27;0.50;;;16.00;99.90;;;;;;5077862;28;20060;-73
2022/06/19 11:54:45;;;;;;;0.88;0.30;;;16.00;99.90;;;;;;5061151;28;20043;-73
2022/06/19 11:57:26;;;;;;;1.27;0.43;;;16.10;99.90;;;;;;5077910;28;20040;-73
2022/06/19 11:59:54;;;;;;;;;;;16.20;99.90;;;;;;5078220;28;20032;-73
2022/06/19 12:02:26;;;;;;;0.70;0.40;;;16.30;99.90;;;;;;5077894;28;19920;-73
2022/06/19 12:04:55;;;;;;;0.40;0.40;;;16.30;99.90;;;;;;5061116;28;20071;-73
2022/06/19 12:07:24;;;;;;;3.90;0.50;;;16.30;99.90;;;;;;5061395;28;20145;-73
2022/06/19 12:10:13;;;;;;;0.20;0.20;;;16.30;99.90;;;;;;5077930;28;20036;-73
2022/06/19 12:12:39;;;;;;;0.80;0.30;;;16.20;99.90;;;;;;5077615;28;20089;-73
2022/06/19 12:15:14;;;;;;;0.20;0.20;;;16.40;99.90;;;;;;5076581;28;20040;-73
2022/06/19 12:17:45;;;;;;;0.93;0.40;;;16.50;99.90;;;;;;5077755;28;20048;-73
2022/06/19 12:20:10;;;;;;;0.40;0.30;;;16.60;99.90;;;;;;5077669;28;20484;-73
2022/06/19 12:22:48;;;;;;;0.85;0.20;;;16.60;99.90;;;;;;5077364;28;20036;-72
2022/06/19 12:25:23;;;;;;;0.20;0.20;;;16.60;99.90;;;;;;5077459;28;20044;-72
2022/06/19 12:28:29;;;;;;;0.75;0.38;;;16.40;99.90;;;;;;5060925;28;20048;-72
2022/06/19 12:31:03;;;;;;;2.05;0.60;;;16.40;99.90;;;;;;5077588;28;20055;-72
2022/06/19 12:33:40;;;;;;;0.38;0.28;;;16.30;99.90;;;;;;5077568;28;20052;-72
2022/06/19 12:36:10;;;;;;;0.20;0.20;;;16.40;99.90;;;;;;5077575;28;20050;-73
2022/06/19 12:38:37;;;;;;;0.45;0.25;;;16.50;99.90;;;;;;5077238;28;20040;-73
2022/06/19 12:41:12;;;;;;;1.48;0.45;;;16.80;99.90;;;;;;5060567;28;20043;-72
2022/06/19 12:43:45;;;;;;;0.30;0.30;;;17.20;99.90;;;;;;5060332;28;20101;-73
2022/06/19 12:46:36;;;;;;;0.20;0.20;;;17.40;99.90;;;;;;5077504;28;20039;-73
2022/06/19 12:49:26;;;;;;;0.30;0.30;;;17.50;99.90;;;;;;5076976;28;20044;-73
2022/06/19 12:51:56;;;;;;;0.30;0.30;;;17.50;99.90;;;;;;5076763;28;20079;-73
2022/06/19 12:54:50;;;;;;;0.40;0.30;;;17.50;99.90;;;;;;5077039;28;20040;-72
2022/06/19 12:57:18;;;;;;;2.67;0.50;;;17.30;99.90;;;;;;5076978;28;20044;-73
2022/06/19 13:00:07;;;;;;;1.75;0.52;;;17.10;99.90;;;;;;5060071;28;20040;-72
2022/06/19 13:02:52;;;;;;;2.60;0.43;;;16.90;99.90;;;;;;5076691;28;20040;-72
2022/06/19 13:05:49;;;;;;;0.52;0.50;;;16.80;99.90;;;;;;5076611;28;20083;-74
2022/06/19 13:08:34;;;;;;;2.00;0.45;;;16.70;99.90;;;;;;5076714;28;20048;-72
2022/06/19 13:11:19;;;;;;;0.32;0.30;;;16.50;99.90;;;;;;5076654;28;20051;-73
2022/06/19 13:14:19;;;;;;;1.77;0.70;;;16.50;99.90;;;;;;5076417;28;20036;-73
2022/06/19 13:17:07;;;;;;;0.55;0.45;;;16.30;99.90;;;;;;5076306;28;20040;-73
2022/06/19 13:20:00;;;;;;;1.73;0.77;;;16.10;99.90;;;;;;5059625;28;20128;-73
2022/06/19 13:22:36;;;;;;;1.05;0.40;;;16.10;99.90;;;;;;5059539;28;20051;-72
2022/06/19 13:25:11;;;;;;;1.33;0.55;;;16.10;99.90;;;;;;5076254;28;20036;-74